Time;durP1;ratioP1;P1;durP2;ratioP2;P2;SDS_P1;SDS_P2;PMS_P1;PMS_P2;Temp;Humidity;BMP_temperature;BMP_pressure;BME280_temperature;BME280_humidity;BME280_pressure;Samples;Min_cycle;Max_cycle;Signal;HPM_P1;HPM_P2
2022/11/19 08:14:46;;;;;;;1.70;1.60;;;5.60;99.90;;;;;;5141869;27;20281;-80
2022/11/19 08:19:56;;;;;;;3.27;1.50;;;6.00;99.90;;;;;;5142961;28;20218;-81
2022/11/19 08:22:21;;;;;;;1.43;1.33;;;5.90;99.90;;;;;;5141670;28;20401;-82
2022/11/19 08:24:47;;;;;;;1.50;1.40;;;6.60;99.90;;;;;;5141532;28;20175;-81
2022/11/19 08:27:13;;;;;;;1.67;1.57;;;7.00;99.90;;;;;;5141429;28;20177;-81
2022/11/19 08:29:38;;;;;;;1.40;1.23;;;7.90;99.90;;;;;;5141178;28;20234;-81
2022/11/19 08:32:04;;;;;;;1.10;1.00;;;8.30;99.90;;;;;;5143039;27;20170;-81
2022/11/19 08:34:31;;;;;;;1.43;1.10;;;8.60;99.90;;;;;;5144365;27;20204;-80
2022/11/19 08:36:56;;;;;;;1.57;0.97;;;8.00;99.90;;;;;;5143611;28;20215;-81
2022/11/19 08:39:22;;;;;;;1.83;1.00;;;7.40;99.90;;;;;;5146121;28;20643;-80
2022/11/19 08:44:32;;;;;;;1.37;0.97;;;7.40;99.90;;;;;;5140579;28;20182;-80
2022/11/19 08:46:57;;;;;;;1.70;1.20;;;7.30;99.90;;;;;;5139899;27;20167;-81
2022/11/19 08:49:23;;;;;;;2.23;1.60;;;7.20;99.90;;;;;;5138686;28;20182;-80
2022/11/19 08:51:49;;;;;;;1.43;1.23;;;7.10;99.90;;;;;;5140389;27;20171;-80
2022/11/19 08:54:15;;;;;;;2.30;1.30;;;7.10;99.90;;;;;;5139175;28;20274;-80
2022/11/19 08:56:40;;;;;;;1.50;1.30;;;6.90;99.90;;;;;;5140403;27;20664;-80
2022/11/19 08:59:06;;;;;;;1.30;1.00;;;6.70;99.90;;;;;;5138959;28;20618;-80
2022/11/19 09:01:32;;;;;;;1.47;1.27;;;6.60;99.90;;;;;;5139674;27;20173;-79
2022/11/19 09:03:58;;;;;;;5.57;2.37;;;6.50;99.90;;;;;;5139791;27;20173;-79
2022/11/19 09:06:23;;;;;;;3.40;1.40;;;6.50;99.90;;;;;;5139257;27;20196;-79
2022/11/19 09:08:49;;;;;;;2.83;1.87;;;6.50;99.90;;;;;;5138622;28;20175;-80
2022/11/19 09:11:17;;;;;;;3.70;2.20;;;6.60;99.90;;;;;;5138104;28;20186;-80
2022/11/19 09:13:43;;;;;;;4.37;1.73;;;6.60;99.90;;;;;;5137920;28;20200;-79
2022/11/19 09:16:09;;;;;;;3.97;2.23;;;6.60;99.90;;;;;;5138599;28;20668;-80
2022/11/19 09:18:38;;;;;;;3.80;1.40;;;6.50;99.90;;;;;;5139400;27;20622;-81
2022/11/19 09:21:04;;;;;;;6.10;1.90;;;6.40;99.90;;;;;;5139086;28;20177;-80
2022/11/19 09:23:30;;;;;;;7.33;3.33;;;6.40;99.90;;;;;;5140738;27;20179;-81
2022/11/19 09:26:05;;;;;;;4.87;2.53;;;6.30;99.90;;;;;;5126290;28;20234;-82
2022/11/19 09:28:31;;;;;;;6.27;3.87;;;6.30;99.90;;;;;;5124392;28;20190;-82
2022/11/19 09:31:05;;;;;;;4.30;2.60;;;6.20;99.90;;;;;;5125500;28;20650;-82
2022/11/19 09:33:33;;;;;;;7.63;3.70;;;6.20;99.90;;;;;;5126314;28;20201;-81
2022/11/19 09:35:59;;;;;;;2.90;1.70;;;6.30;99.90;;;;;;5125820;28;20658;-81
2022/11/19 09:38:25;;;;;;;6.57;2.20;;;6.30;99.90;;;;;;5125917;28;20187;-82
2022/11/19 09:40:54;;;;;;;1.50;1.30;;;6.30;99.90;;;;;;5127636;28;20173;-82
2022/11/19 09:43:25;;;;;;;3.07;1.93;;;6.30;99.90;;;;;;5127333;28;20179;-82
2022/11/19 09:46:23;;;;;;;1.90;1.63;;;6.40;99.90;;;;;;5127872;28;20197;-82
2022/11/19 09:48:51;;;;;;;2.63;1.70;;;6.50;99.90;;;;;;5092849;28;20282;-82
2022/11/19 09:51:23;;;;;;;2.80;2.10;;;6.50;99.90;;;;;;5128267;28;20183;-83
2022/11/19 09:54:17;;;;;;;2.30;1.30;;;6.50;99.90;;;;;;5128482;28;20202;-82
2022/11/19 09:56:45;;;;;;;6.33;1.93;;;6.50;99.90;;;;;;5127678;28;20606;-81
2022/11/19 09:59:32;;;;;;;1.63;1.50;;;6.60;99.90;;;;;;5127795;28;20592;-81
2022/11/19 10:01:58;;;;;;;3.67;2.63;;;6.70;99.90;;;;;;5127559;28;20230;-81
2022/11/19 10:04:27;;;;;;;3.00;2.03;;;6.70;99.90;;;;;;5128049;28;20177;-82
2022/11/19 10:07:05;;;;;;;3.47;1.70;;;6.70;99.90;;;;;;5128978;27;20693;-81
2022/11/19 10:09:58;;;;;;;3.50;1.80;;;6.70;99.90;;;;;;5127749;28;20179;-81
2022/11/19 10:12:42;;;;;;;3.80;1.70;;;6.90;99.90;;;;;;5124221;28;20187;-80
2022/11/19 10:15:36;;;;;;;2.53;1.30;;;7.00;99.90;;;;;;5125871;28;20669;-81
2022/11/19 10:18:09;;;;;;;2.37;1.97;;;7.10;99.90;;;;;;5126251;28;20220;-81
2022/11/19 10:20:44;;;;;;;11.67;4.00;;;7.10;99.90;;;;;;5125325;28;20180;-81
2022/11/19 10:23:18;;;;;;;5.57;4.70;;;7.20;99.90;;;;;;5125484;28;20184;-81
2022/11/19 10:25:49;;;;;;;23.80;13.10;;;7.10;99.90;;;;;;5127047;27;20207;-82
2022/11/19 10:28:17;;;;;;;26.30;17.53;;;7.10;99.90;;;;;;5125938;28;20174;-82
2022/11/19 10:30:49;;;;;;;7.03;4.27;;;7.20;99.90;;;;;;5126218;28;20188;-82
2022/11/19 10:33:31;;;;;;;3.87;3.10;;;7.30;99.90;;;;;;5126954;28;20242;-82
2022/11/19 10:36:12;;;;;;;2.70;2.17;;;7.30;99.90;;;;;;5127377;28;20212;-82
2022/11/19 10:38:49;;;;;;;2.40;2.10;;;7.40;99.90;;;;;;5139619;28;20153;-81
2022/11/19 10:41:44;;;;;;;2.60;2.10;;;7.40;99.90;;;;;;5136632;28;20162;-80
2022/11/19 10:44:36;;;;;;;3.53;2.70;;;7.40;99.90;;;;;;5130571;28;20176;-81
2022/11/19 10:47:03;;;;;;;3.20;1.70;;;7.50;99.90;;;;;;5124215;28;20181;-81
2022/11/19 10:49:32;;;;;;;3.27;1.97;;;7.60;99.90;;;;;;5123934;28;20170;-81
2022/11/19 10:51:58;;;;;;;4.07;3.03;;;7.60;99.90;;;;;;5123184;28;20187;-81
2022/11/19 10:54:26;;;;;;;5.07;3.53;;;7.70;99.90;;;;;;5123256;28;20533;-81
2022/11/19 10:56:54;;;;;;;3.47;2.33;;;7.70;99.90;;;;;;5120581;28;20218;-81
2022/11/19 10:59:23;;;;;;;2.53;2.00;;;7.80;99.90;;;;;;5123413;28;20174;-81
2022/11/19 11:02:14;;;;;;;2.27;2.03;;;8.40;99.90;;;;;;5121074;28;20661;-81
2022/11/19 11:05:11;;;;;;;3.53;1.63;;;9.40;99.90;;;;;;5123384;27;20175;-82
2022/11/19 11:07:48;;;;;;;3.17;2.20;;;10.30;99.90;;;;;;5121911;28;20182;-81
2022/11/19 11:10:36;;;;;;;2.37;1.33;;;10.80;99.90;;;;;;5123632;28;20574;-82
2022/11/19 11:16:05;;;;;;;2.50;1.70;;;10.60;99.90;;;;;;5124100;28;20238;-81
2022/11/19 11:18:31;;;;;;;3.37;2.30;;;11.20;99.90;;;;;;5122274;28;20329;-82
2022/11/19 11:20:58;;;;;;;3.63;1.40;;;11.20;99.90;;;;;;5123795;28;20179;-82
2022/11/19 11:23:26;;;;;;;2.60;1.40;;;11.10;99.90;;;;;;5123083;28;20603;-82
2022/11/19 11:25:58;;;;;;;2.77;1.43;;;11.30;99.90;;;;;;5122985;28;20254;-82
2022/11/19 11:28:24;;;;;;;1.77;1.30;;;11.30;99.90;;;;;;5121435;28;20214;-81
2022/11/19 11:30:56;;;;;;;2.03;1.80;;;11.40;99.90;;;;;;5122932;28;20180;-80
2022/11/19 11:33:35;;;;;;;5.83;4.67;;;11.80;99.90;;;;;;5124982;28;20285;-80
2022/11/19 11:36:06;;;;;;;8.33;6.80;;;12.10;99.90;;;;;;5123286;28;20197;-80
2022/11/19 11:38:38;;;;;;;6.33;4.93;;;12.10;99.90;;;;;;5123729;28;20176;-81
2022/11/19 11:41:11;;;;;;;7.67;4.63;;;12.10;99.90;;;;;;5123659;28;20184;-81
2022/11/19 11:43:39;;;;;;;5.70;4.13;;;12.30;99.90;;;;;;5123950;28;20181;-81
2022/11/19 11:46:09;;;;;;;5.53;3.50;;;11.80;99.90;;;;;;5124112;28;20236;-81
2022/11/19 11:48:45;;;;;;;7.60;6.40;;;12.30;99.90;;;;;;5125087;28;20205;-81
2022/11/19 11:51:31;;;;;;;6.90;3.93;;;13.00;99.90;;;;;;5124253;28;20186;-81
2022/11/19 11:54:18;;;;;;;4.33;3.47;;;13.30;99.90;;;;;;5123603;28;20203;-81
2022/11/19 11:56:44;;;;;;;2.40;2.10;;;12.80;99.90;;;;;;5123460;28;20303;-81
2022/11/19 11:59:30;;;;;;;3.60;2.73;;;13.00;99.90;;;;;;5122405;28;20536;-81
2022/11/19 12:02:05;;;;;;;4.93;2.60;;;13.00;99.90;;;;;;5123290;28;20182;-81
2022/11/19 12:04:32;;;;;;;2.67;1.90;;;12.90;99.90;;;;;;5121961;28;20176;-81
2022/11/19 12:07:16;;;;;;;1.90;1.50;;;12.90;99.90;;;;;;5122007;28;20334;-81
2022/11/19 12:10:02;;;;;;;3.03;2.20;;;12.80;99.90;;;;;;5123142;28;20177;-81
2022/11/19 12:12:43;;;;;;;3.70;1.73;;;12.80;99.90;;;;;;5122505;28;20187;-81
2022/11/19 12:15:18;;;;;;;2.57;1.70;;;12.50;99.90;;;;;;5122017;28;20699;-81
2022/11/19 12:17:58;;;;;;;2.23;1.67;;;12.40;99.90;;;;;;5122216;28;20171;-81
2022/11/19 12:21:01;;;;;;;3.30;2.50;;;11.60;99.90;;;;;;5124188;28;20163;-81
2022/11/19 12:23:48;;;;;;;3.40;1.97;;;10.20;99.90;;;;;;5124343;28;20705;-81
2022/11/19 12:26:26;;;;;;;3.00;1.73;;;9.30;99.90;;;;;;5123861;28;20210;-82
2022/11/19 12:29:18;;;;;;;3.10;2.80;;;8.80;99.90;;;;;;5124216;28;20175;-82
2022/11/19 12:31:53;;;;;;;2.20;1.40;;;8.60;99.90;;;;;;5124007;28;20180;-82
2022/11/19 12:34:44;;;;;;;1.10;0.97;;;8.50;99.90;;;;;;5125115;28;20587;-82
2022/11/19 12:37:42;;;;;;;1.20;1.00;;;8.30;99.90;;;;;;5126031;28;20164;-82
2022/11/19 12:40:26;;;;;;;2.00;1.30;;;8.30;99.90;;;;;;5099353;28;20184;-82
2022/11/19 12:43:16;;;;;;;3.77;2.60;;;8.40;99.90;;;;;;5124285;28;20179;-82
2022/11/19 12:45:55;;;;;;;5.43;2.10;;;8.50;99.90;;;;;;5125363;28;20605;-81
2022/11/19 12:48:49;;;;;;;5.00;2.50;;;8.60;99.90;;;;;;5129352;28;20592;-80
2022/11/19 12:51:44;;;;;;;15.83;7.23;;;8.80;99.90;;;;;;5125215;28;20188;-82
2022/11/19 12:54:16;;;;;;;4.67;2.03;;;8.70;99.90;;;;;;5123768;28;20264;-82
2022/11/19 12:56:45;;;;;;;2.60;1.70;;;8.60;99.90;;;;;;5124794;28;20221;-82
2022/11/19 12:59:32;;;;;;;1.77;1.30;;;8.70;99.90;;;;;;5125459;28;20194;-81
2022/11/19 13:02:00;;;;;;;1.20;0.90;;;8.70;99.90;;;;;;5129643;28;20182;-82
2022/11/19 13:04:37;;;;;;;1.30;1.20;;;8.60;99.90;;;;;;5134121;28;20195;-82
2022/11/19 13:07:15;;;;;;;2.00;1.07;;;8.60;99.90;;;;;;5134049;28;20179;-80
2022/11/19 13:09:47;;;;;;;2.70;1.80;;;8.60;99.90;;;;;;5131766;28;20177;-81
2022/11/19 13:12:21;;;;;;;2.73;1.60;;;8.70;99.90;;;;;;5127389;28;20176;-80
2022/11/19 13:14:49;;;;;;;15.03;7.27;;;8.70;99.90;;;;;;5123378;28;20245;-80
2022/11/19 13:17:28;;;;;;;2.30;1.23;;;8.80;99.90;;;;;;5125654;27;20171;-80
2022/11/19 13:20:19;;;;;;;1.43;1.10;;;8.70;99.90;;;;;;5124910;28;20168;-80
2022/11/19 13:22:48;;;;;;;4.50;2.67;;;8.50;99.90;;;;;;5122818;28;20184;-80
2022/11/19 13:25:23;;;;;;;2.67;1.70;;;8.60;99.90;;;;;;5125629;28;20183;-80
2022/11/19 13:27:51;;;;;;;3.53;1.40;;;8.70;99.90;;;;;;5123644;28;20166;-80
2022/11/19 13:30:22;;;;;;;1.20;1.10;;;8.60;99.90;;;;;;5125541;27;20186;-80
2022/11/19 13:33:01;;;;;;;2.47;1.33;;;8.40;99.90;;;;;;5125798;28;20252;-80
2022/11/19 13:35:35;;;;;;;1.63;1.10;;;8.30;99.90;;;;;;5123648;28;20193;-80
2022/11/19 13:38:18;;;;;;;2.97;1.27;;;8.30;99.90;;;;;;5123492;28;20171;-80
2022/11/19 13:40:46;;;;;;;2.27;1.20;;;8.20;99.90;;;;;;5123967;28;20171;-80
2022/11/19 13:46:26;;;;;;;2.23;1.23;;;8.00;99.90;;;;;;5125174;28;20251;-81
2022/11/19 13:49:09;;;;;;;5.47;1.80;;;7.90;99.90;;;;;;5125575;28;20165;-81
2022/11/19 13:51:39;;;;;;;2.33;1.83;;;7.80;99.90;;;;;;5125540;28;20182;-80
2022/11/19 13:54:07;;;;;;;2.73;1.60;;;7.70;99.90;;;;;;5125728;28;20261;-81
2022/11/19 13:56:42;;;;;;;3.07;1.87;;;7.70;99.90;;;;;;5123909;28;20641;-80
2022/11/19 13:59:25;;;;;;;3.83;1.87;;;7.60;99.90;;;;;;5126232;28;20169;-81
2022/11/19 14:02:22;;;;;;;1.60;1.40;;;7.50;99.90;;;;;;5125455;28;20232;-81
2022/11/19 14:04:59;;;;;;;3.57;1.80;;;7.40;99.90;;;;;;5125894;28;20208;-80
2022/11/19 14:07:38;;;;;;;7.33;4.20;;;7.40;99.90;;;;;;5126075;28;20691;-81
2022/11/19 14:10:16;;;;;;;40.90;16.47;;;7.30;99.90;;;;;;5126848;28;20172;-80
2022/11/19 14:13:03;;;;;;;48.40;18.73;;;7.30;99.90;;;;;;5129036;28;20192;-80
2022/11/19 14:27:24;;;;;;;8.50;5.20;;;7.00;99.90;;;;;;5120947;28;20167;-81
2022/11/19 14:29:52;;;;;;;6.47;4.50;;;6.90;99.90;;;;;;5124080;28;20155;-81
2022/11/19 14:32:26;;;;;;;10.73;5.00;;;6.80;99.90;;;;;;5124581;28;20669;-81
2022/11/19 14:35:01;;;;;;;5.17;3.10;;;6.70;99.90;;;;;;5123126;28;20356;-82
2022/11/19 14:37:30;;;;;;;6.17;3.97;;;6.60;99.90;;;;;;5122313;28;20179;-81
2022/11/19 14:40:11;;;;;;;7.50;3.67;;;6.50;99.90;;;;;;5121788;28;20168;-81
2022/11/19 14:46:00;;;;;;;8.83;5.63;;;6.40;99.90;;;;;;5123539;28;20194;-81
2022/11/19 14:48:32;;;;;;;6.90;4.93;;;6.30;99.90;;;;;;5121921;28;20332;-81
2022/11/19 14:51:08;;;;;;;3.80;2.73;;;6.20;99.90;;;;;;5122108;28;20300;-81
2022/11/19 14:53:57;;;;;;;5.70;3.37;;;6.10;99.90;;;;;;5122118;28;20609;-81
2022/11/19 14:56:23;;;;;;;6.87;3.43;;;6.00;99.90;;;;;;5122026;28;20552;-81
2022/11/19 14:59:14;;;;;;;3.87;3.00;;;6.00;99.90;;;;;;5122401;28;20200;-81
2022/11/19 15:01:56;;;;;;;3.83;2.30;;;5.90;99.90;;;;;;5123800;28;20186;-81
2022/11/19 15:04:29;;;;;;;3.70;2.60;;;5.90;99.90;;;;;;5122397;28;20179;-81
2022/11/19 15:06:55;;;;;;;7.13;4.50;;;5.90;99.90;;;;;;5121968;28;20206;-80
2022/11/19 15:09:52;;;;;;;5.10;4.00;;;5.90;99.90;;;;;;5123977;28;20497;-81
2022/11/19 15:12:21;;;;;;;4.57;3.40;;;5.90;99.90;;;;;;5123934;28;20588;-81
2022/11/19 15:15:21;;;;;;;6.83;3.73;;;5.90;99.90;;;;;;5124337;28;20453;-81
2022/11/19 15:17:39;;;;;;;3.33;2.50;;;5.90;99.90;;;;;;5122138;28;20184;-81
2022/11/19 15:20:41;;;;;;;5.67;3.70;;;5.90;99.90;;;;;;5124093;28;20167;-81
2022/11/19 15:23:28;;;;;;;6.70;3.53;;;5.80;99.90;;;;;;5121567;28;20183;-81
2022/11/19 15:26:19;;;;;;;6.90;3.07;;;5.80;99.90;;;;;;5123421;28;20189;-81
2022/11/19 15:29:12;;;;;;;11.93;5.30;;;5.80;99.90;;;;;;5120453;28;20172;-81
2022/11/19 15:32:23;;;;;;;9.77;5.93;;;5.80;99.90;;;;;;5122301;28;20164;-81
2022/11/19 15:35:16;;;;;;;6.83;5.03;;;5.80;99.90;;;;;;5122222;28;20291;-81
2022/11/19 15:38:02;;;;;;;13.17;5.57;;;5.80;99.90;;;;;;5122184;28;20547;-81
2022/11/19 15:40:32;;;;;;;17.83;11.87;;;5.80;99.90;;;;;;5109753;28;20176;-81
2022/11/19 15:43:19;;;;;;;22.17;11.87;;;5.80;99.90;;;;;;5122121;28;20421;-81
2022/11/19 15:45:55;;;;;;;13.33;9.60;;;5.70;99.90;;;;;;5119148;28;20211;-83
2022/11/19 15:48:37;;;;;;;23.37;12.93;;;5.70;99.90;;;;;;5122926;28;20408;-81
2022/11/19 15:51:05;;;;;;;15.07;9.70;;;5.70;99.90;;;;;;5125665;28;20188;-82
2022/11/19 15:53:31;;;;;;;14.33;8.33;;;5.70;99.90;;;;;;5123983;28;20221;-81
2022/11/19 15:56:04;;;;;;;11.13;7.27;;;5.60;99.90;;;;;;5123618;28;20267;-81
2022/11/19 15:58:38;;;;;;;7.27;4.40;;;5.60;99.90;;;;;;5124725;28;20598;-81
2022/11/19 16:01:06;;;;;;;8.23;3.83;;;5.60;99.90;;;;;;5125787;28;20155;-82
2022/11/19 16:03:32;;;;;;;10.30;3.83;;;5.60;99.90;;;;;;5124220;28;20591;-82
2022/11/19 16:06:07;;;;;;;8.13;5.30;;;5.50;99.90;;;;;;5124785;28;20210;-82
2022/11/19 16:08:33;;;;;;;11.13;6.87;;;5.50;99.90;;;;;;5126301;28;20178;-82
2022/11/19 16:20:05;;;;;;;12.63;7.63;;;5.40;99.90;;;;;;5066769;28;20925;-81
2022/11/19 16:22:43;;;;;;;8.17;6.60;;;5.40;99.90;;;;;;5104825;28;20180;-81
2022/11/19 16:25:33;;;;;;;9.40;7.77;;;5.50;99.90;;;;;;5125166;28;20237;-82
2022/11/19 16:28:05;;;;;;;11.00;7.70;;;5.50;99.90;;;;;;5123209;28;20175;-82
2022/11/19 16:30:48;;;;;;;14.83;8.87;;;5.60;99.90;;;;;;5123752;28;20173;-81
2022/11/19 16:33:18;;;;;;;5.60;4.60;;;5.60;99.90;;;;;;5129620;28;20702;-79
2022/11/19 16:35:43;;;;;;;12.53;6.43;;;5.60;99.90;;;;;;5126311;28;20515;-82
2022/11/19 16:38:15;;;;;;;14.37;7.40;;;5.50;99.90;;;;;;5125663;28;20631;-82
2022/11/19 16:43:26;;;;;;;9.27;6.67;;;5.50;99.90;;;;;;5128262;28;20444;-81
2022/11/19 16:45:52;;;;;;;12.70;7.00;;;5.50;99.90;;;;;;5127817;28;20195;-82
2022/11/19 16:48:55;;;;;;;9.53;6.63;;;5.50;99.90;;;;;;5128517;28;20593;-82
2022/11/19 16:51:53;;;;;;;11.97;7.23;;;5.40;99.90;;;;;;5065282;28;20247;-82
2022/11/19 16:54:45;;;;;;;13.07;8.60;;;5.40;99.90;;;;;;5126490;28;20214;-82
2022/11/19 16:57:13;;;;;;;31.00;19.43;;;5.40;99.90;;;;;;5126431;28;20640;-81
2022/11/19 16:59:39;;;;;;;32.50;21.57;;;5.40;99.90;;;;;;5126211;28;20187;-81
2022/11/19 17:02:14;;;;;;;66.10;36.93;;;5.50;99.90;;;;;;5126016;28;20203;-81
2022/11/19 17:04:49;;;;;;;23.73;16.33;;;5.50;99.90;;;;;;5126483;28;20174;-82
2022/11/19 17:07:25;;;;;;;21.60;15.27;;;5.50;99.90;;;;;;5128327;28;20159;-81
2022/11/19 17:10:22;;;;;;;34.40;22.33;;;5.60;99.90;;;;;;5128888;28;20442;-83
2022/11/19 17:12:54;;;;;;;27.87;16.90;;;5.60;99.90;;;;;;5128568;28;20441;-82
2022/11/19 17:15:43;;;;;;;65.60;45.90;;;5.60;99.90;;;;;;5129739;28;20441;-81
2022/11/19 17:18:09;;;;;;;14.87;8.70;;;5.60;99.90;;;;;;5139846;28;20160;-81
2022/11/19 17:20:34;;;;;;;22.53;14.37;;;5.60;99.90;;;;;;5140173;28;20183;-81
2022/11/19 17:23:08;;;;;;;32.20;18.03;;;5.60;99.90;;;;;;5140881;28;20189;-81
2022/11/19 17:25:34;;;;;;;11.10;6.00;;;5.60;99.90;;;;;;5140823;28;20203;-81
2022/11/19 17:28:00;;;;;;;12.23;6.93;;;5.60;99.90;;;;;;5128599;28;20175;-82
2022/11/19 17:30:32;;;;;;;16.37;9.37;;;5.60;99.90;;;;;;5123434;28;20201;-82
2022/11/19 17:33:03;;;;;;;15.90;9.07;;;5.60;99.90;;;;;;5122789;28;20207;-82
2022/11/19 17:35:39;;;;;;;17.40;10.20;;;5.60;99.90;;;;;;5125011;28;20593;-82
2022/11/19 17:38:23;;;;;;;10.47;6.33;;;5.70;99.90;;;;;;5123359;28;20179;-82
2022/11/19 17:40:53;;;;;;;13.77;6.30;;;5.60;99.90;;;;;;5123252;28;20190;-82
2022/11/19 17:46:27;;;;;;;19.73;13.83;;;5.60;99.90;;;;;;5124937;28;20279;-82
2022/11/19 17:48:53;;;;;;;13.70;9.47;;;5.60;99.90;;;;;;5122857;28;20430;-82
2022/11/19 17:51:20;;;;;;;69.67;35.13;;;5.60;99.90;;;;;;5125923;28;20409;-82
2022/11/19 17:53:50;;;;;;;53.73;33.27;;;5.50;99.90;;;;;;5126094;28;20211;-82
2022/11/19 17:56:24;;;;;;;17.80;15.23;;;5.50;99.90;;;;;;5129320;28;20264;-82
2022/11/19 17:58:50;;;;;;;11.93;6.07;;;5.50;99.90;;;;;;5124430;28;20419;-82
2022/11/19 18:01:16;;;;;;;9.20;6.30;;;5.50;99.90;;;;;;5126164;28;20169;-82
2022/11/19 18:03:42;;;;;;;9.50;6.07;;;5.50;99.90;;;;;;5123780;28;20192;-82
2022/11/19 18:06:11;;;;;;;10.10;5.63;;;5.50;99.90;;;;;;5124442;28;20328;-82
2022/11/19 18:08:39;;;;;;;5.77;4.83;;;5.50;99.90;;;;;;5127095;28;20658;-81
2022/11/19 18:11:05;;;;;;;7.67;4.20;;;5.50;99.90;;;;;;5125174;28;20168;-82
2022/11/19 18:13:35;;;;;;;11.67;7.40;;;5.60;99.90;;;;;;5124501;28;20237;-82
